Terminal Aerodrome Forecast
Issued by NWS

Home | Current Version | Previous Version | Text Only | Print | Product List | Glossary Off
Versions: 1 2 3 4 5 6 7 8 9 10 11 12 13 14 15 16 17 18 19 20 21

000
FTUS43 KMPX 242045 AAA
TAFAXN
TAF AMD
KAXN 242045Z 2421/2518 14016G25KT P6SM SCT015
     FM242300 15013KT 6SM -SHRA VCTS SCT015CB OVC025
      TEMPO 2500/2504 4SM TSRA BR OVC015CB
     FM250600 18010KT P6SM FEW050
     FM251500 25014G22KT P6SM OVC020=

USA.gov is the U.S. government's official web portal to all federal, state and local government web resources and services.